Deerhorn Valley (67) Station Data

Red Flag Warning: No
Fire Weather Zone: 250
SDGE Region: Mountain Empire
Lat/Lon: 32.687/-116.762

Observations

Time Wind Speed/Gust Temp(F) RH Fuel Moist Fuel Temp(F) Dewpt(F) Tmax(F) Tmin(F) Accum Precip 10-min Precip SL Press(mb)
3/29 8:00am 92 1 G 4 64° 22% - - 24° 64.9° 56.2° - - -
3/29 7:50am 52 1 G 2 63° 19% - - 20° 64.9° 56.2° - - -
3/29 7:40am 10 2 G 4 63° 19% - - 20° 63.4° 56.2° - - -
3/29 7:30am 7 4 G 5 62° 16% - - 16° 62.7° 56.2° - - -
3/29 7:20am 60 2 G 3 62° 14% - - 13° 62.4° 56.2° - - -
3/29 7:10am 69 2 G 3 60° 16% - - 14° 61.8° 56.2° - - -
3/29 7:00am 50 2 G 4 59° 17% - - 14° 61.8° 56.2° - - -
3/29 6:50am 22 3 G 5 60° 15% - - 12° 61.8° 56.2° - - -
3/29 6:40am 63 2 G 3 59° 16% - - 13° 61.8° 56.2° - - -
3/29 6:30am 76 2 G 4 60° 15% - - 13° 61.8° 56.2° - - -
3/29 6:20am 33 2 G 4 60° 16% - - 13° 61.8° 56.2° - - -
3/29 6:10am 340 2 G 4 60° 15% - - 12° 61.8° 56.2° - - -
3/29 6:00am 71 3 G 5 59° 16% - - 13° 61.8° 56.2° - - -
3/29 5:50am 331 2 G 4 60° 14% - - 11° 61.8° 56.2° - - -
3/29 5:40am 37 2 G 2 59° 16% - - 13° 61.8° 56.2° - - -
3/29 5:30am 13 1 G 2 59° 15% - - 12° 61.8° 56.2° - - -
3/29 5:20am 85 1 G 2 60° 15% - - 13° 61.8° 56.2° - - -
3/29 5:10am 273 2 G 4 60° 15% - - 12° 61.8° 56.2° - - -
3/29 5:00am 8 1 G 4 58° 17% - - 14° 61.8° 56.2° - - -
3/29 4:50am 342 1 G 4 57° 19% - - 15° 61.8° 56.2° - - -
3/29 4:40am 161 2 G 5 57° 20% - - 16° 61.8° 56.4° - - -
3/29 4:30am 141 3 G 6 58° 18% - - 15° 61.8° 56.9° - - -
3/29 4:20am 51 3 G 6 60° 16% - - 14° 61.8° 57.8° - - -
3/29 4:10am 18 3 G 6 60° 15% - - 13° 61.8° 58.3° - - -
3/29 4:00am 16 4 G 8 61° 14% - - 12° 61.8° 58.3° - - -
3/29 3:50am 40 5 G 7 61° 14% - - 12° 61.7° 58.3° - - -
3/29 3:40am 22 3 G 6 60° 16% - - 13° 61.7° 58.3° - - -
3/29 3:30am 25 2 G 5 59° 17% - - 14° 61.7° 58.3° - - -
3/29 3:20am 16 4 G 6 60° 15% - - 13° 61.7° 58.3° - - -
3/29 3:10am 345 3 G 6 60° 15% - - 12° 61.7° 58.3° - - -
3/29 3:00am 224 2 G 2 59° 16% - - 13° 61.7° 58.3° - - -
3/29 2:50am 99 1 G 3 60° 15% - - 12° 61.7° 58.3° - - -
3/29 2:40am 34 3 G 5 60° 15% - - 12° 61.7° 58.3° - - -
3/29 2:30am 50 2 G 5 60° 15% - - 12° 61.7° 58.3° - - -
3/29 2:20am 99 4 G 6 60° 15% - - 13° 61.7° 58.3° - - -
3/29 2:10am 79 3 G 5 60° 16% - - 13° 61.7° 58.3° - - -
3/29 2:00am 32 3 G 5 60° 15% - - 13° 61.7° 58.3° - - -
3/29 1:50am 50 2 G 4 61° 14% - - 12° 61.6° 58.3° - - -
3/29 1:40am 26 3 G 6 60° 15% - - 13° 61.4° 58.3° - - -
3/29 1:30am 68 2 G 4 60° 16% - - 14° 61.4° 58.3° - - -
3/29 1:20am 33 3 G 7 61° 16% - - 14° 61.4° 58.3° - - -
3/29 1:10am 22 4 G 8 60° 19% - - 17° 60.7° 58.3° - - -
3/29 1:00am 38 4 G 9 59° 20% - - 19° 60.7° 58.3° - - -
3/29 12:50am 20 6 G 11 60° 18% - - 16° 60.7° 58.3° - - -
3/29 12:40am 19 5 G 9 60° 19% - - 18° 60.6° 58.3° - - -
3/29 12:30am 24 5 G 10 60° 23% - - 22° 60.4° 58.3° - - -
3/29 12:20am 21 6 G 10 60° 27% - - 26° 60.4° 58.3° - - -
3/29 12:10am 27 4 G 9 59° 31% - - 28° 59.7° 58.3° - - -
3/29 12:00am 49 4 G 8 58° 34% - - 30° 65.5° 44.7° - - -
3/28 11:50pm 56 6 G 9 58° 38% - - 32° 65.5° 44.7° - - -
3/28 11:40pm 41 5 G 8 57° 41% - - 34° 65.5° 44.7° - - -
3/28 11:30pm 32 4 G 7 56° 47% - - 36° 65.5° 44.7° - - -
3/28 11:20pm 49 3 G 5 56° 52% - - 38° 65.5° 44.7° - - -
3/28 11:10pm 46 2 G 5 54° 57% - - 39° 65.5° 44.7° - - -
3/28 11:00pm 186 1 G 2 54° 58% - - 40° 65.5° 44.7° - - -
3/28 10:50pm 24 2 G 5 55° 56% - - 40° 65.5° 44.7° - - -
3/28 10:40pm 326 2 G 4 55° 56% - - 40° 65.5° 44.7° - - -
3/28 10:30pm 350 2 G 4 56° 54% - - 40° 65.5° 44.7° - - -
3/28 10:20pm 61 4 G 6 57° 53% - - 40° 65.5° 44.7° - - -
3/28 10:10pm 44 4 G 7 57° 53% - - 40° 65.5° 44.7° - - -
3/28 10:00pm 30 4 G 5 54° 60% - - 41° 65.5° 44.7° - - -
3/28 9:50pm 45 2 G 4 53° 64% - - 41° 65.5° 44.7° - - -
3/28 9:40pm 320 1 G 3 53° 65% - - 41° 65.5° 44.7° - - -
3/28 9:30pm 349 2 G 4 53° 66% - - 42° 65.5° 44.7° - - -
3/28 9:20pm 38 1 G 3 53° 68% - - 42° 65.5° 44.7° - - -
3/28 9:10pm 45 1 G 4 52° 69% - - 43° 65.5° 44.7° - - -
3/28 9:00pm 45 2 G 4 53° 69% - - 43° 65.5° 44.7° - - -
3/28 8:50pm 13 1 G 3 53° 68% - - 42° 65.5° 44.7° - - -
3/28 8:40pm 9 2 G 3 53° 67% - - 42° 65.5° 44.7° - - -
3/28 8:30pm 124 2 G 4 53° 64% - - 41° 65.5° 44.7° - - -
3/28 8:20pm 319 2 G 3 53° 64% - - 41° 65.5° 44.7° - - -
3/28 8:10pm 301 2 G 3 53° 65% - - 42° 65.5° 44.7° - - -
3/28 8:00pm 243 2 G 4 54° 64% - - 42° 65.5° 44.7° - - -
3/28 7:50pm 320 3 G 6 54° 65% - - 42° 65.5° 44.7° - - -
3/28 7:40pm 229 3 G 8 54° 65% - - 43° 65.5° 44.7° - - -
3/28 7:30pm 277 5 G 8 54° 65% - - 43° 65.5° 44.7° - - -
3/28 7:20pm 266 5 G 7 55° 63% - - 43° 65.5° 44.7° - - -
3/28 7:10pm 248 5 G 7 55° 63% - - 43° 65.5° 44.7° - - -
3/28 7:00pm 275 6 G 8 56° 60% - - 43° 65.5° 44.7° - - -
3/28 6:50pm 236 6 G 9 57° 59% - - 43° 65.5° 44.7° - - -
3/28 6:40pm 280 5 G 8 58° 57% - - 42° 65.5° 44.7° - - -
3/28 6:30pm 236 7 G 11 58° 55% - - 42° 65.5° 44.7° - - -
3/28 6:20pm 265 7 G 11 59° 54% - - 42° 65.5° 44.7° - - -
3/28 6:10pm 257 7 G 13 60° 53% - - 43° 65.5° 44.7° - - -
3/28 6:00pm 244 8 G 15 60° 55% - - 43° 65.5° 44.7° - - -
3/28 5:50pm 273 8 G 13 60° 53% - - 43° 65.5° 44.7° - - -
3/28 5:40pm 247 9 G 15 61° 50% - - 42° 65.5° 44.7° - - -
3/28 5:30pm 249 8 G 14 61° 50% - - 42° 65.5° 44.7° - - -
3/28 5:20pm 262 8 G 12 62° 48% - - 42° 65.5° 44.7° - - -
3/28 5:10pm 254 8 G 13 62° 49% - - 42° 65.5° 44.7° - - -
3/28 5:00pm 243 10 G 15 61° 49% - - 42° 65.5° 44.7° - - -
3/28 4:50pm 255 9 G 14 62° 49% - - 43° 65.5° 44.7° - - -
3/28 4:40pm 242 8 G 14 62° 50% - - 43° 65.5° 44.7° - - -
3/28 4:30pm 244 10 G 16 62° 50% - - 43° 65.5° 44.7° - - -
3/28 4:20pm 248 9 G 15 62° 49% - - 43° 65.5° 44.7° - - -
3/28 4:10pm 247 7 G 14 63° 50% - - 44° 65.5° 44.7° - - -
3/28 4:00pm 237 10 G 17 63° 49% - - 44° 65.5° 44.7° - - -
3/28 3:50pm 245 9 G 14 63° 49% - - 44° 65.5° 44.7° - - -
3/28 3:40pm 232 9 G 15 64° 45% - - 42° 65.5° 44.7° - - -
3/28 3:30pm 228 9 G 14 64° 44% - - 42° 65.5° 44.7° - - -
3/28 3:20pm 238 8 G 14 64° 45% - - 42° 65.5° 44.7° - - -
3/28 3:10pm 230 9 G 14 64° 46% - - 43° 65.5° 44.7° - - -
3/28 3:00pm 230 9 G 15 64° 45% - - 42° 65.5° 44.7° - - -
3/28 2:50pm 230 7 G 15 65° 37% - - 37° 65.5° 44.7° - - -
3/28 2:40pm 245 9 G 15 64° 34% - - 35° 65.5° 44.7° - - -
3/28 2:30pm 223 9 G 15 64° 34% - - 35° 65.5° 44.7° - - -
3/28 2:20pm 233 9 G 16 64° 37% - - 38° 65.5° 44.7° - - -
3/28 2:10pm 238 7 G 12 65° 38% - - 39° 65.5° 44.7° - - -
3/28 2:00pm 269 9 G 17 64° 30% - - 31° 65.5° 44.7° - - -
3/28 1:50pm 254 7 G 13 65° 28% - - 31° 65.5° 44.7° - - -
3/28 1:40pm 239 7 G 12 64° 30% - - 32° 65.4° 44.7° - - -
3/28 1:30pm 280 6 G 10 64° 35% - - 36° 65.4° 44.7° - - -
3/28 1:20pm 253 7 G 12 63° 36% - - 36° 64° 44.7° - - -
3/28 1:10pm 265 7 G 14 63° 36% - - 36° 64° 44.7° - - -
3/28 1:00pm 279 6 G 11 63° 34% - - 34° 63.7° 44.7° - - -
3/28 12:50pm 261 8 G 14 62° 32% - - 32° 63.5° 44.7° - - -
3/28 12:40pm 290 6 G 11 63° 30% - - 31° 63.5° 44.7° - - -
3/28 12:30pm 249 7 G 12 61° 33% - - 32° 62.7° 44.7° - - -
3/28 12:20pm 255 8 G 12 61° 31% - - 30° 61.7° 44.7° - - -
3/28 12:10pm 262 7 G 12 61° 31% - - 30° 61.7° 44.7° - - -
3/28 12:00pm 250 9 G 14 60° 32% - - 30° 61.7° 44.7° - - -
3/28 11:50am 264 7 G 12 61° 30% - - 29° 61.7° 44.7° - - -
3/28 11:40am 250 7 G 13 60° 30% - - 29° 61.1° 44.7° - - -
3/28 11:30am 258 7 G 10 60° 37% - - 34° 61.1° 44.7° - - -
3/28 11:20am 267 6 G 9 60° 34% - - 31° 60.5° 44.7° - - -
3/28 11:10am 266 6 G 9 60° 43% - - 37° 60.3° 44.7° - - -
3/28 11:00am 230 6 G 9 59° 50% - - 41° 59.6° 44.7° - - -
3/28 10:50am 231 7 G 10 59° 50% - - 40° 59.6° 44.7° - - -
3/28 10:40am 233 7 G 10 58° 50% - - 40° 59.6° 44.7° - - -
3/28 10:30am 231 5 G 8 58° 50% - - 40° 59.6° 44.7° - - -
3/28 10:20am 222 5 G 10 58° 51% - - 40° 59.6° 44.7° - - -
3/28 10:10am 225 7 G 10 58° 47% - - 38° 59.6° 44.7° - - -
3/28 10:00am 234 5 G 7 58° 43% - - 35° 59.6° 44.7° - - -
3/28 9:50am 226 4 G 6 58° 43% - - 36° 59.6° 44.7° - - -
3/28 9:40am 211 4 G 7 58° 41% - - 35° 59.6° 44.7° - - -
3/28 9:30am 236 3 G 6 57° 43% - - 35° 59.6° 44.7° - - -
3/28 9:20am 210 4 G 6 56° 44% - - 35° 59.6° 44.7° - - -
3/28 9:10am 234 4 G 7 55° 49% - - 36° 59.6° 44.7° - - -
3/28 9:00am 233 5 G 8 55° 51% - - 37° 59.6° 44.7° - - -
3/28 8:50am 163 2 G 6 59° 37% - - 32° 59.6° 44.7° - - -
3/28 8:40am 137 2 G 3 58° 40% - - 33° 58.1° 44.7° - - -
3/28 8:30am 141 1 G 3 56° 49% - - 37° 57.8° 44.7° - - -
3/28 8:20am 87 2 G 4 54° 50% - - 36° 55.3° 44.7° - - -
3/28 8:10am 78 3 G 4 52° 52% - - 35° 53.3° 44.7° - - -
3/28 8:00am 68 3 G 4 50° 58% - - 36° 51.6° 44.7° - - -
3/28 7:50am 73 2 G 3 51° 59% - - 37° 51.6° 44.7° - - -
3/28 7:40am 332 2 G 3 49° 57% - - 35° 50.7° 44.7° - - -
3/28 7:30am 218 2 G 3 49° 57% - - 34° 50.3° 44.7° - - -
3/28 7:20am 102 2 G 3 48° 58% - - 34° 50.3° 44.7° - - -
3/28 7:10am 37 2 G 4 49° 56% - - 34° 50.3° 44.7° - - -
3/28 7:00am 225 3 G 6 49° 55% - - 34° 49.7° 44.7° - - -
3/28 6:50am 31 3 G 7 49° 54% - - 33° 49.7° 44.7° - - -
3/28 6:40am 0 3 G 6 48° 60% - - 35° 49.7° 44.7° - - -
3/28 6:30am 268 4 G 6 47° 62% - - 35° 49.4° 44.7° - - -
3/28 6:20am 146 2 G 4 49° 58% - - 34° 49.4° 44.7° - - -
3/28 6:10am 229 2 G 4 48° 59% - - 35° 49.4° 44.7° - - -
3/28 6:00am 284 2 G 6 49° 57% - - 34° 49.4° 44.7° - - -